createdAt,value
2023-03-12T00:03:48.804Z,0.90
2023-03-12T00:08:56.276Z,0.80
2023-03-12T00:14:00.921Z,0.80
2023-03-12T00:19:06.257Z,0.70
2023-03-12T00:24:12.266Z,0.60
2023-03-12T00:29:17.428Z,0.60
2023-03-12T00:34:22.748Z,0.60
2023-03-12T00:39:27.988Z,0.60
2023-03-12T00:44:33.040Z,0.50
2023-03-12T00:49:38.382Z,0.70
2023-03-12T00:54:43.641Z,0.80
2023-03-12T00:59:48.784Z,0.90
2023-03-12T01:04:53.927Z,1.00
2023-03-12T01:09:59.036Z,1.10
2023-03-12T01:15:04.684Z,1.20
2023-03-12T01:20:11.799Z,1.20
2023-03-12T01:25:17.182Z,1.20
2023-03-12T01:30:22.351Z,1.10
2023-03-12T01:35:27.730Z,1.10
2023-03-12T01:40:36.293Z,1.10
2023-03-12T01:46:10.120Z,1.00
2023-03-12T01:51:18.310Z,1.00
2023-03-12T01:56:25.123Z,1.00
2023-03-12T02:01:31.187Z,1.00
2023-03-12T02:06:39.457Z,0.80
2023-03-12T02:11:44.529Z,0.90
2023-03-12T02:16:49.818Z,0.90
2023-03-12T02:21:55.083Z,1.00
2023-03-12T02:27:01.364Z,1.00
2023-03-12T02:32:08.950Z,1.00
2023-03-12T02:37:14.791Z,1.00
2023-03-12T02:42:21.523Z,1.10
2023-03-12T02:47:27.436Z,1.10
2023-03-12T02:52:34.634Z,1.10
2023-03-12T02:57:40.263Z,1.10
2023-03-12T03:02:45.389Z,1.20
2023-03-12T03:07:50.646Z,1.10
2023-03-12T03:12:55.897Z,1.10
2023-03-12T03:18:02.660Z,1.00
2023-03-12T03:23:07.890Z,1.00
2023-03-12T03:28:13.324Z,1.00
2023-03-12T03:33:18.475Z,0.90
2023-03-12T03:38:24.503Z,0.90
2023-03-12T03:43:29.694Z,1.00
2023-03-12T03:48:35.658Z,0.90
2023-03-12T03:53:41.383Z,0.90
2023-03-12T03:58:47.053Z,0.90
2023-03-12T04:03:54.659Z,0.90
2023-03-12T04:09:00.378Z,0.80
2023-03-12T04:14:05.541Z,0.70
2023-03-12T04:19:10.790Z,0.70
2023-03-12T04:24:18.898Z,0.60
2023-03-12T04:29:24.695Z,0.60
2023-03-12T04:34:29.885Z,0.50
2023-03-12T04:39:35.118Z,0.50
2023-03-12T04:44:41.435Z,0.50
2023-03-12T04:49:46.567Z,0.40
2023-03-12T04:54:51.754Z,0.30
2023-03-12T04:59:56.822Z,0.30
2023-03-12T05:05:02.099Z,0.20
2023-03-12T05:10:07.954Z,0.10
2023-03-12T05:15:13.226Z,0.20
2023-03-12T05:20:18.489Z,0.20
2023-03-12T05:25:23.600Z,0.10
2023-03-12T05:30:29.039Z,0.10
2023-03-12T05:35:34.689Z,0.10
2023-03-12T05:40:39.956Z,0.10
2023-03-12T05:45:45.240Z,0.10
2023-03-12T05:50:50.496Z,0.10
2023-03-12T05:55:55.847Z,0.10
2023-03-12T06:01:01.952Z,0.20
2023-03-12T06:06:07.929Z,0.20
2023-03-12T06:11:15.062Z,0.30
2023-03-12T06:16:23.439Z,0.50
2023-03-12T06:21:36.058Z,0.80
2023-03-12T06:26:41.593Z,1.10
2023-03-12T06:31:48.398Z,1.40
2023-03-12T06:36:53.642Z,1.80
2023-03-12T06:41:58.918Z,1.90
2023-03-12T06:47:03.986Z,2.20
2023-03-12T06:52:09.172Z,2.30
2023-03-12T06:57:15.998Z,2.50
2023-03-12T07:02:21.239Z,2.60
2023-03-12T07:07:26.635Z,3.10
2023-03-12T07:12:31.812Z,3.30
2023-03-12T07:17:37.082Z,3.60
2023-03-12T07:22:42.675Z,3.70
2023-03-12T07:27:47.885Z,3.60
2023-03-12T07:32:53.767Z,4.00
2023-03-12T07:38:00.729Z,4.40
2023-03-12T07:43:09.270Z,4.60
2023-03-12T07:48:14.602Z,4.70
2023-03-12T07:53:19.807Z,4.90
2023-03-12T07:58:25.759Z,5.20
2023-03-12T08:03:31.292Z,5.30
2023-03-12T08:08:38.698Z,5.50
2023-03-12T08:13:44.413Z,5.50
2023-03-12T08:18:50.256Z,6.00
2023-03-12T08:23:55.483Z,6.40
2023-03-12T08:29:04.018Z,6.90
2023-03-12T08:34:09.578Z,6.90
2023-03-12T08:39:15.277Z,6.60
2023-03-12T08:44:20.695Z,6.90
2023-03-12T08:49:26.265Z,7.20
2023-03-12T08:54:31.529Z,6.50
2023-03-12T08:59:36.953Z,6.90
2023-03-12T09:04:43.496Z,6.80
2023-03-12T09:09:48.959Z,7.00
2023-03-12T09:15:09.524Z,7.50
2023-03-12T09:20:01.024Z,7.30
2023-03-12T09:25:08.859Z,7.50
2023-03-12T09:30:18.667Z,7.00
2023-03-12T09:35:25.456Z,6.80
2023-03-12T09:40:33.712Z,6.90
2023-03-12T09:45:44.978Z,7.10
2023-03-12T09:50:52.811Z,6.50
2023-03-12T09:56:00.253Z,7.00
2023-03-12T10:01:21.313Z,7.10
2023-03-12T10:06:50.687Z,7.10
2023-03-12T10:12:01.568Z,7.00
2023-03-12T10:17:27.801Z,6.60
2023-03-12T10:22:45.480Z,6.70
2023-03-12T10:27:51.778Z,6.00
2023-03-12T10:33:05.975Z,6.30
2023-03-12T10:38:20.040Z,6.80
2023-03-12T10:43:27.276Z,6.80
2023-03-12T10:48:32.464Z,7.50
2023-03-12T10:53:44.016Z,8.00
2023-03-12T10:58:51.893Z,8.30
2023-03-12T11:04:19.508Z,7.10
2023-03-12T11:09:27.537Z,7.40
2023-03-12T11:14:32.824Z,7.00
2023-03-12T11:19:40.607Z,7.60
2023-03-12T11:24:59.676Z,7.20
2023-03-12T11:30:07.904Z,6.30
2023-03-12T11:35:16.275Z,6.60
2023-03-12T11:40:45.305Z,6.70
2023-03-12T11:45:59.506Z,6.50
2023-03-12T11:51:39.331Z,6.80
2023-03-12T11:56:47.817Z,8.00
2023-03-12T12:02:05.022Z,8.10
2023-03-12T12:07:31.614Z,7.40
2023-03-12T12:12:42.514Z,7.30
2023-03-12T12:18:08.582Z,6.80
2023-03-12T12:23:35.030Z,7.10
2023-03-12T12:29:12.035Z,6.90
2023-03-12T12:34:41.201Z,7.70
2023-03-12T12:40:08.960Z,8.10
2023-03-12T12:45:16.516Z,7.40
2023-03-12T12:50:24.665Z,7.40
2023-03-12T12:55:38.954Z,7.70
2023-03-12T13:00:50.191Z,7.30
2023-03-12T13:06:02.967Z,7.10
2023-03-12T13:11:19.408Z,7.30
2023-03-12T13:16:43.163Z,7.30
2023-03-12T13:22:06.132Z,7.10
2023-03-12T13:27:17.657Z,7.00
2023-03-12T13:32:40.813Z,7.10
2023-03-12T13:37:52.055Z,7.10
2023-03-12T13:43:17.640Z,7.10
2023-03-12T13:48:28.557Z,6.90
2023-03-12T13:53:40.636Z,6.70
2023-03-12T13:58:54.905Z,6.70
2023-03-12T14:04:09.270Z,6.80
2023-03-12T14:09:24.556Z,6.70
2023-03-12T14:14:50.899Z,6.40
2023-03-12T14:20:06.644Z,6.50
2023-03-12T14:25:37.234Z,6.60
2023-03-12T14:31:07.341Z,6.70
2023-03-12T14:36:18.652Z,6.40
2023-03-12T14:41:32.645Z,6.30
2023-03-12T14:46:41.080Z,6.20
2023-03-12T14:51:47.056Z,6.00
2023-03-12T14:56:52.555Z,5.90
2023-03-12T15:02:18.744Z,5.80
2023-03-12T15:07:26.996Z,5.90
2023-03-12T15:12:37.853Z,5.70
2023-03-12T15:17:43.199Z,5.70
2023-03-12T15:22:48.734Z,5.70
2023-03-12T15:28:10.668Z,5.60
2023-03-12T15:33:21.606Z,5.60
2023-03-12T15:38:27.781Z,5.50
2023-03-12T15:43:33.730Z,5.40
2023-03-12T15:48:44.337Z,5.30
2023-03-12T15:54:06.776Z,5.20
2023-03-12T15:59:27.328Z,5.20
2023-03-12T16:04:32.628Z,5.20
2023-03-12T16:09:37.886Z,5.10
2023-03-12T16:14:44.880Z,4.90
2023-03-12T16:19:50.634Z,4.80
2023-03-12T16:24:56.844Z,4.70
2023-03-12T16:30:03.031Z,4.50
2023-03-12T16:35:14.972Z,4.30
2023-03-12T16:40:32.498Z,4.20
2023-03-12T16:45:28.101Z,4.00
2023-03-12T16:50:35.766Z,3.90
2023-03-12T16:55:50.476Z,3.80
2023-03-12T17:00:56.805Z,3.60
2023-03-12T17:06:02.571Z,3.50
2023-03-12T17:11:23.067Z,3.50
2023-03-12T17:16:29.005Z,3.40
2023-03-12T17:21:34.200Z,3.30
2023-03-12T17:26:43.825Z,3.20
2023-03-12T17:31:54.461Z,3.10
2023-03-12T17:36:59.796Z,3.00
2023-03-12T17:42:04.971Z,2.90
2023-03-12T17:47:10.120Z,2.90
2023-03-12T17:52:15.890Z,2.90
2023-03-12T17:57:21.121Z,2.90
2023-03-12T18:02:26.588Z,2.80
2023-03-12T18:07:31.784Z,2.90
2023-03-12T18:12:38.141Z,2.80
2023-03-12T18:17:45.674Z,2.80
2023-03-12T18:22:51.020Z,2.80
2023-03-12T18:27:56.816Z,2.80
2023-03-12T18:33:02.026Z,2.80
2023-03-12T18:38:07.392Z,2.80
2023-03-12T18:43:13.913Z,2.70
2023-03-12T18:48:18.924Z,2.70
2023-03-12T18:53:24.112Z,2.70
2023-03-12T18:58:30.666Z,2.60
2023-03-12T19:03:36.733Z,2.40
2023-03-12T19:08:42.417Z,2.40
2023-03-12T19:13:52.183Z,2.40
2023-03-12T19:18:57.798Z,2.50
2023-03-12T19:24:02.835Z,2.40
2023-03-12T19:29:07.975Z,2.40
2023-03-12T19:34:12.965Z,2.20
2023-03-12T19:39:21.395Z,2.20
2023-03-12T19:44:24.992Z,2.20
2023-03-12T19:49:30.094Z,2.20
2023-03-12T19:54:35.274Z,2.20
2023-03-12T19:59:40.900Z,2.20
2023-03-12T20:04:45.990Z,2.10
2023-03-12T20:09:51.941Z,2.10
2023-03-12T20:14:56.937Z,2.10
2023-03-12T20:20:02.149Z,2.10
2023-03-12T20:25:08.004Z,2.10
2023-03-12T20:30:16.444Z,2.00
2023-03-12T20:35:21.674Z,1.90
2023-03-12T20:40:31.761Z,1.90
2023-03-12T20:45:37.728Z,1.90
2023-03-12T20:50:43.733Z,1.90
2023-03-12T20:55:48.917Z,1.90
2023-03-12T21:00:54.349Z,1.90
2023-03-12T21:06:02.283Z,2.00
2023-03-12T21:11:10.788Z,2.10
2023-03-12T21:16:16.447Z,2.20
2023-03-12T21:21:21.750Z,2.20
2023-03-12T21:26:26.877Z,2.20
2023-03-12T21:31:32.117Z,2.20
2023-03-12T21:36:37.271Z,2.30
2023-03-12T21:41:43.017Z,2.30
2023-03-12T21:46:48.221Z,2.30
2023-03-12T21:51:53.806Z,2.30
2023-03-12T21:57:00.972Z,2.40
2023-03-12T22:02:06.094Z,2.40
2023-03-12T22:07:11.177Z,2.40
2023-03-12T22:12:16.413Z,2.50
2023-03-12T22:17:21.647Z,2.50
2023-03-12T22:22:26.730Z,2.40
2023-03-12T22:27:32.009Z,2.40
2023-03-12T22:32:37.331Z,2.40
2023-03-12T22:37:43.902Z,2.40
2023-03-12T22:42:56.625Z,2.40
2023-03-12T22:48:01.800Z,2.40
2023-03-12T22:53:07.642Z,2.40
2023-03-12T22:58:13.126Z,2.30
2023-03-12T23:03:18.697Z,2.30
2023-03-12T23:08:24.462Z,2.30
2023-03-12T23:13:31.382Z,2.40
2023-03-12T23:18:38.295Z,2.30
2023-03-12T23:23:44.981Z,2.30
2023-03-12T23:28:52.463Z,2.40
2023-03-12T23:33:58.876Z,2.50
2023-03-12T23:39:04.953Z,2.40
2023-03-12T23:44:10.163Z,2.40
2023-03-12T23:49:15.388Z,2.40
2023-03-12T23:54:21.221Z,2.50
2023-03-12T23:59:26.359Z,2.50
